createdAt,value
2017-12-09T00:02:03.586Z,-0.60
2017-12-09T00:04:31.110Z,-0.60
2017-12-09T00:06:58.630Z,-0.60
2017-12-09T00:09:26.174Z,-0.60
2017-12-09T00:11:53.696Z,-0.60
2017-12-09T00:14:22.006Z,-0.70
2017-12-09T00:16:49.526Z,-0.70
2017-12-09T00:19:17.072Z,-0.80
2017-12-09T00:21:44.596Z,-0.80
2017-12-09T00:24:12.134Z,-0.80
2017-12-09T00:26:39.664Z,-0.80
2017-12-09T00:29:07.207Z,-0.80
2017-12-09T00:31:34.741Z,-0.70
2017-12-09T00:34:02.331Z,-0.70
2017-12-09T00:36:30.642Z,-0.60
2017-12-09T00:38:58.949Z,-0.60
2017-12-09T00:41:26.472Z,-0.60
2017-12-09T00:43:54.785Z,-0.60
2017-12-09T00:46:22.306Z,-0.60
2017-12-09T00:48:50.616Z,-0.70
2017-12-09T00:51:18.133Z,-0.70
2017-12-09T00:53:45.676Z,-0.70
2017-12-09T00:56:13.198Z,-0.70
2017-12-09T00:58:40.746Z,-0.70
2017-12-09T01:01:09.034Z,-0.70
2017-12-09T01:03:36.569Z,-0.80
2017-12-09T01:06:04.860Z,-0.80
2017-12-09T01:08:33.167Z,-0.70
2017-12-09T01:11:00.683Z,-0.80
2017-12-09T01:13:28.998Z,-0.80
2017-12-09T01:16:08.455Z,-0.80
2017-12-09T01:21:31.410Z,-0.80
2017-12-09T01:23:58.957Z,-0.80
2017-12-09T01:26:27.237Z,-0.80
2017-12-09T01:28:54.778Z,-0.90
2017-12-09T01:31:23.066Z,-0.90
2017-12-09T01:33:51.382Z,-0.90
2017-12-09T01:36:18.910Z,-0.90
2017-12-09T01:38:47.231Z,-0.90
2017-12-09T01:41:14.759Z,-0.90
2017-12-09T01:43:42.310Z,-0.90
2017-12-09T01:46:10.598Z,-0.90
2017-12-09T01:48:38.120Z,-0.90
2017-12-09T01:51:05.665Z,-0.90
2017-12-09T01:53:33.181Z,-0.90
2017-12-09T01:56:00.728Z,-0.90
2017-12-09T01:58:29.014Z,-0.90
2017-12-09T02:00:57.314Z,-0.90
2017-12-09T02:03:24.835Z,-1.00
2017-12-09T02:05:53.155Z,-0.80
2017-12-09T02:08:20.679Z,-0.90
2017-12-09T02:10:49.042Z,-0.80
2017-12-09T02:13:16.562Z,-0.80
2017-12-09T02:15:44.113Z,-0.80
2017-12-09T02:18:11.639Z,-0.80
2017-12-09T02:20:39.975Z,-0.80
2017-12-09T02:23:07.502Z,-0.80
2017-12-09T02:25:35.027Z,-0.80
2017-12-09T02:28:02.566Z,-0.80
2017-12-09T02:30:30.083Z,-0.70
2017-12-09T02:32:57.622Z,-0.70
2017-12-09T02:35:25.916Z,-0.70
2017-12-09T02:37:53.926Z,-0.70
2017-12-09T02:40:21.438Z,-0.70
2017-12-09T02:42:49.742Z,-0.70
2017-12-09T02:45:17.273Z,-0.70
2017-12-09T02:47:45.592Z,-0.70
2017-12-09T02:50:13.124Z,-0.70
2017-12-09T02:52:40.673Z,-0.60
2017-12-09T02:55:08.954Z,-0.70
2017-12-09T02:57:37.241Z,-0.70
2017-12-09T03:00:04.774Z,-0.70
2017-12-09T03:02:32.290Z,-0.70
2017-12-09T03:04:59.829Z,-0.70
2017-12-09T03:07:27.349Z,-0.70
2017-12-09T03:09:54.881Z,-0.60
2017-12-09T03:12:22.392Z,-0.70
2017-12-09T03:14:49.935Z,-0.70
2017-12-09T03:17:18.219Z,-0.60
2017-12-09T03:19:46.528Z,-0.60
2017-12-09T03:22:14.042Z,-0.60
2017-12-09T03:24:41.593Z,-0.60
2017-12-09T03:27:09.115Z,-0.60
2017-12-09T03:29:36.655Z,-0.50
2017-12-09T03:32:04.182Z,-0.50
2017-12-09T03:34:31.723Z,-0.40
2017-12-09T03:36:59.247Z,-0.50
2017-12-09T03:39:26.846Z,-0.50
2017-12-09T03:41:54.361Z,-0.50
2017-12-09T03:44:21.906Z,-0.40
2017-12-09T03:46:50.190Z,-0.40
2017-12-09T03:49:18.476Z,-0.40
2017-12-09T03:51:46.018Z,-0.40
2017-12-09T03:54:14.302Z,-0.40
2017-12-09T03:56:42.604Z,-0.40
2017-12-09T03:59:10.134Z,-0.40
2017-12-09T04:01:38.441Z,-0.40
2017-12-09T04:04:05.966Z,-0.40
2017-12-09T04:06:33.514Z,-0.40
2017-12-09T04:09:01.028Z,-0.40
2017-12-09T04:11:28.570Z,-0.40
2017-12-09T04:13:56.098Z,-0.30
2017-12-09T04:16:23.643Z,-0.30
2017-12-09T04:18:51.158Z,-0.30
2017-12-09T04:21:18.678Z,-0.30
2017-12-09T04:23:46.226Z,-0.30
2017-12-09T04:26:13.759Z,-0.30
2017-12-09T04:28:41.308Z,-0.30
2017-12-09T04:31:08.831Z,-0.30
2017-12-09T04:33:37.131Z,-0.30
2017-12-09T04:36:04.655Z,-0.30
2017-12-09T04:38:32.192Z,-0.20
2017-12-09T04:40:59.706Z,-0.20
2017-12-09T04:43:27.241Z,-0.20
2017-12-09T04:45:54.763Z,-0.20
2017-12-09T04:48:22.304Z,-0.30
2017-12-09T04:50:49.832Z,-0.20
2017-12-09T04:53:18.130Z,-0.20
2017-12-09T04:55:45.655Z,-0.20
2017-12-09T04:58:13.194Z,-0.20
2017-12-09T05:00:40.715Z,-0.30
2017-12-09T05:03:08.238Z,-0.20
2017-12-09T05:05:36.563Z,-0.20
2017-12-09T05:08:04.090Z,-0.20
2017-12-09T05:10:32.389Z,-0.10
2017-12-09T05:12:59.911Z,-0.10
2017-12-09T05:15:27.447Z,-0.10
2017-12-09T05:17:54.972Z,-0.10
2017-12-09T05:20:22.515Z,-0.10
2017-12-09T05:22:50.811Z,-0.10
2017-12-09T05:25:18.351Z,-0.10
2017-12-09T05:27:46.632Z,-0.10
2017-12-09T05:30:14.947Z,-0.10
2017-12-09T05:32:42.471Z,-0.10
2017-12-09T05:35:10.780Z,-0.10
2017-12-09T05:37:38.303Z,-0.10
2017-12-09T05:40:06.615Z,-0.10
2017-12-09T05:42:34.135Z,-0.10
2017-12-09T05:45:02.436Z,0.00
2017-12-09T05:47:29.950Z,-0.10
2017-12-09T05:49:57.489Z,-0.10
2017-12-09T05:52:25.017Z,0.00
2017-12-09T05:54:52.554Z,-0.10
2017-12-09T05:57:20.838Z,-0.10
2017-12-09T05:59:49.144Z,-0.20
2017-12-09T06:02:16.659Z,-0.20
2017-12-09T06:04:44.198Z,-0.20
2017-12-09T06:07:11.718Z,-0.20
2017-12-09T06:09:39.269Z,-0.20
2017-12-09T06:12:06.787Z,-0.30
2017-12-09T06:14:34.326Z,-0.30
2017-12-09T06:17:02.613Z,-0.30
2017-12-09T06:19:30.151Z,-0.30
2017-12-09T06:21:57.673Z,-0.30
2017-12-09T06:24:25.976Z,-0.40
2017-12-09T06:26:53.508Z,-0.40
2017-12-09T06:29:21.812Z,-0.40
2017-12-09T06:31:49.335Z,-0.40
2017-12-09T06:34:16.875Z,-0.40
2017-12-09T06:36:44.390Z,-0.40
2017-12-09T06:39:11.934Z,-0.40
2017-12-09T06:41:40.222Z,-0.40
2017-12-09T06:44:07.787Z,-0.40
2017-12-09T06:46:35.306Z,-0.40
2017-12-09T06:49:02.823Z,-0.40
2017-12-09T06:51:30.366Z,-0.40
2017-12-09T06:53:57.886Z,-0.50
2017-12-09T06:56:25.431Z,-0.50
2017-12-09T06:58:52.957Z,-0.40
2017-12-09T07:01:20.498Z,-0.50
2017-12-09T07:03:48.023Z,-0.50
2017-12-09T07:06:15.563Z,-0.50
2017-12-09T07:08:43.108Z,-0.50
2017-12-09T07:11:10.649Z,-0.50
2017-12-09T07:13:38.167Z,-0.50
2017-12-09T07:16:05.682Z,-0.50
2017-12-09T07:18:33.217Z,-0.50
2017-12-09T07:21:01.499Z,-0.50
2017-12-09T07:23:29.034Z,-0.50
2017-12-09T07:25:56.576Z,-0.50
2017-12-09T07:28:24.115Z,-0.50
2017-12-09T07:30:51.631Z,-0.50
2017-12-09T07:33:19.944Z,-0.50
2017-12-09T07:35:47.468Z,-0.60
2017-12-09T07:38:15.775Z,-0.50
2017-12-09T07:40:43.291Z,-0.50
2017-12-09T07:43:10.818Z,-0.50
2017-12-09T07:45:38.356Z,-0.50
2017-12-09T07:48:05.871Z,-0.50
2017-12-09T07:50:33.420Z,-0.50
2017-12-09T07:53:00.934Z,-0.50
2017-12-09T07:55:28.505Z,-0.40
2017-12-09T07:57:56.024Z,-0.40
2017-12-09T08:00:24.330Z,-0.40
2017-12-09T08:02:51.851Z,-0.40
2017-12-09T08:05:19.391Z,-0.40
2017-12-09T08:07:46.905Z,-0.40
2017-12-09T08:10:14.447Z,-0.40
2017-12-09T08:12:42.733Z,-0.40
2017-12-09T08:15:11.046Z,-0.40
2017-12-09T08:17:38.567Z,-0.50
2017-12-09T08:20:06.883Z,-0.40
2017-12-09T08:22:34.407Z,-0.40
2017-12-09T08:25:02.707Z,-0.20
2017-12-09T08:27:30.227Z,-0.30
2017-12-09T08:29:57.757Z,-0.20
2017-12-09T08:32:25.267Z,0.00
2017-12-09T08:34:53.577Z,-0.10
2017-12-09T08:37:21.099Z,-0.10
2017-12-09T08:39:49.402Z,-0.30
2017-12-09T08:42:16.914Z,-0.30
2017-12-09T08:44:45.224Z,-0.50
2017-12-09T08:47:13.515Z,-0.60
2017-12-09T08:49:41.054Z,-0.60
2017-12-09T08:52:09.344Z,-0.70
2017-12-09T08:54:37.651Z,-0.60
2017-12-09T08:57:05.181Z,-0.60
2017-12-09T08:59:33.482Z,-0.50
2017-12-09T09:02:01.002Z,-0.50
2017-12-09T09:04:28.543Z,-0.40
2017-12-09T09:06:56.053Z,0.10
2017-12-09T09:09:23.606Z,0.40
2017-12-09T09:11:51.130Z,1.10
2017-12-09T09:14:18.683Z,1.30
2017-12-09T09:16:46.231Z,1.10
2017-12-09T09:19:13.789Z,1.10
2017-12-09T09:21:41.318Z,1.20
2017-12-09T09:24:09.596Z,1.90
2017-12-09T09:26:37.133Z,1.90
2017-12-09T09:29:04.647Z,2.20
2017-12-09T09:31:32.198Z,2.30
2017-12-09T09:33:59.720Z,3.20
2017-12-09T09:36:28.007Z,3.00
2017-12-09T09:38:56.322Z,3.00
2017-12-09T09:41:23.848Z,2.90
2017-12-09T09:43:52.160Z,3.50
2017-12-09T09:46:19.691Z,3.50
2017-12-09T09:48:47.244Z,3.80
2017-12-09T09:51:15.537Z,4.00
2017-12-09T09:53:43.087Z,4.00
2017-12-09T09:56:11.375Z,2.90
2017-12-09T09:58:38.922Z,2.90
2017-12-09T10:01:07.214Z,1.80
2017-12-09T10:03:34.736Z,1.80
2017-12-09T10:06:03.076Z,1.30
2017-12-09T10:08:30.595Z,1.30
2017-12-09T10:10:58.134Z,1.10
2017-12-09T10:13:25.654Z,1.00
2017-12-09T10:15:53.186Z,0.80
2017-12-09T10:18:21.470Z,0.60
2017-12-09T10:20:49.774Z,0.40
2017-12-09T10:23:17.287Z,0.40
2017-12-09T10:25:44.820Z,0.30
2017-12-09T10:28:12.347Z,0.30
2017-12-09T10:30:39.892Z,0.40
2017-12-09T10:39:12.057Z,0.70
2017-12-09T10:41:39.583Z,0.60
2017-12-09T10:44:07.111Z,0.50
2017-12-09T10:46:34.665Z,0.50
2017-12-09T10:49:02.186Z,0.50
2017-12-09T10:51:30.491Z,0.60
2017-12-09T10:53:58.011Z,0.60
2017-12-09T10:56:26.325Z,0.80
2017-12-09T10:58:53.853Z,0.80
2017-12-09T11:01:22.172Z,0.80
2017-12-09T11:03:49.701Z,0.80
2017-12-09T11:06:17.242Z,0.80
2017-12-09T11:08:45.536Z,1.00
2017-12-09T11:11:13.078Z,1.00
2017-12-09T11:13:41.369Z,1.00
2017-12-09T11:16:09.688Z,1.00
2017-12-09T11:18:37.219Z,1.00
2017-12-09T11:21:04.783Z,0.90
2017-12-09T11:23:32.311Z,0.80
2017-12-09T11:25:59.834Z,0.80
2017-12-09T11:28:27.383Z,0.70
2017-12-09T11:30:54.908Z,0.60
2017-12-09T11:33:23.223Z,0.50
2017-12-09T11:35:50.759Z,0.50
2017-12-09T11:38:18.305Z,0.40
2017-12-09T11:40:46.600Z,0.40
2017-12-09T11:43:14.150Z,0.30
2017-12-09T11:45:42.442Z,0.40
2017-12-09T11:48:09.999Z,0.40
2017-12-09T11:50:37.530Z,0.40
2017-12-09T11:53:05.083Z,0.50
2017-12-09T11:55:32.618Z,0.40
2017-12-09T11:58:00.930Z,0.40
2017-12-09T12:00:28.467Z,0.40
2017-12-09T12:02:56.028Z,0.50
2017-12-09T12:05:23.564Z,0.40
2017-12-09T12:07:51.103Z,0.40
2017-12-09T12:10:18.650Z,0.30
2017-12-09T12:12:46.949Z,0.20
2017-12-09T12:15:14.590Z,0.20
2017-12-09T12:17:42.883Z,0.20
2017-12-09T12:20:11.191Z,0.20
2017-12-09T12:22:38.757Z,0.20
2017-12-09T12:25:06.284Z,0.20
2017-12-09T12:27:33.810Z,0.10
2017-12-09T12:30:01.363Z,0.00
2017-12-09T12:32:28.886Z,0.10
2017-12-09T12:34:56.430Z,0.00
2017-12-09T12:37:23.961Z,-0.10
2017-12-09T12:39:51.510Z,-0.20
2017-12-09T12:42:19.038Z,-0.30
2017-12-09T12:44:46.592Z,-0.40
2017-12-09T12:47:14.118Z,-0.40
2017-12-09T12:49:42.452Z,-0.40
2017-12-09T12:55:19.407Z,-0.40
2017-12-09T12:57:47.690Z,-0.30
2017-12-09T13:00:16.000Z,-0.30
2017-12-09T13:02:43.514Z,-0.30
2017-12-09T13:05:11.058Z,-0.20
2017-12-09T13:07:38.578Z,-0.20
2017-12-09T13:10:06.138Z,-0.10
2017-12-09T13:12:33.678Z,-0.10
2017-12-09T13:15:01.962Z,-0.30
2017-12-09T13:17:29.511Z,-0.40
2017-12-09T13:19:57.800Z,-0.60
2017-12-09T13:22:26.102Z,-0.60
2017-12-09T13:24:53.619Z,-0.60
2017-12-09T13:27:21.922Z,-0.60
2017-12-09T13:29:49.437Z,-0.60
2017-12-09T13:32:16.955Z,-0.60
2017-12-09T13:34:44.503Z,-0.70
2017-12-09T13:37:12.026Z,-0.60
2017-12-09T13:39:39.561Z,-0.60
2017-12-09T13:42:07.078Z,-0.70
2017-12-09T13:44:34.611Z,-0.60
2017-12-09T13:47:02.129Z,-0.70
2017-12-09T13:49:29.661Z,-0.70
2017-12-09T13:51:57.178Z,-0.60
2017-12-09T13:54:24.724Z,-0.70
2017-12-09T13:56:52.237Z,-0.70
2017-12-09T13:59:19.776Z,-0.90
2017-12-09T14:01:48.090Z,-0.80
2017-12-09T14:04:15.609Z,-0.80
2017-12-09T14:06:43.174Z,-0.80
2017-12-09T14:09:11.462Z,-0.80
2017-12-09T14:11:39.762Z,-0.80
2017-12-09T14:14:07.292Z,-0.90
2017-12-09T14:16:35.600Z,-0.80
2017-12-09T14:19:03.119Z,-0.80
2017-12-09T14:21:30.661Z,-0.80
2017-12-09T14:23:58.177Z,-0.90
2017-12-09T14:26:25.722Z,-0.90
2017-12-09T14:28:54.006Z,-0.80
2017-12-09T14:31:22.311Z,-0.90
2017-12-09T14:33:49.830Z,-0.90
2017-12-09T14:36:17.375Z,-0.80
2017-12-09T14:38:44.901Z,-0.90
2017-12-09T14:41:12.442Z,-0.80
2017-12-09T14:43:39.962Z,-0.90
2017-12-09T14:46:07.498Z,-0.90
2017-12-09T14:48:35.018Z,-1.00
2017-12-09T14:51:02.563Z,-0.90
2017-12-09T14:53:30.846Z,-1.00
2017-12-09T14:55:59.158Z,-1.00
2017-12-09T14:58:26.675Z,-1.00
2017-12-09T15:00:54.983Z,-1.00
2017-12-09T15:03:22.527Z,-1.00
2017-12-09T15:05:50.838Z,-1.00
2017-12-09T15:08:18.354Z,-1.00
2017-12-09T15:10:45.894Z,-1.00
2017-12-09T15:13:13.410Z,-1.00
2017-12-09T15:15:40.946Z,-1.00
2017-12-09T15:18:09.231Z,-1.00
2017-12-09T15:20:37.530Z,-1.00
2017-12-09T15:23:05.046Z,-1.00
2017-12-09T15:25:32.582Z,-1.10
2017-12-09T15:28:00.103Z,-1.10
2017-12-09T15:30:27.643Z,-1.10
2017-12-09T15:32:55.927Z,-1.10
2017-12-09T15:35:24.243Z,-1.10
2017-12-09T15:37:51.757Z,-1.10
2017-12-09T15:40:20.058Z,-1.10
2017-12-09T15:42:47.581Z,-1.10
2017-12-09T15:45:15.118Z,-1.10
2017-12-09T15:47:42.650Z,-1.10
2017-12-09T15:50:10.166Z,-1.10
2017-12-09T15:52:37.693Z,-1.20
2017-12-09T15:55:05.232Z,-1.20
2017-12-09T15:57:32.767Z,-1.20
2017-12-09T16:00:01.059Z,-1.10
2017-12-09T16:02:28.591Z,-1.10
2017-12-09T16:04:56.118Z,-1.10
2017-12-09T16:07:23.676Z,-1.10
2017-12-09T16:09:51.194Z,-1.00
2017-12-09T16:12:19.493Z,-1.10
2017-12-09T16:14:48.522Z,-1.10
2017-12-09T16:17:16.060Z,-1.10
2017-12-09T16:19:43.578Z,-1.10
2017-12-09T16:22:11.895Z,-1.10
2017-12-09T16:24:39.419Z,-1.10
2017-12-09T16:27:07.719Z,-1.00
2017-12-09T16:29:35.240Z,-1.00
2017-12-09T16:32:02.802Z,-1.00
2017-12-09T16:34:30.325Z,-1.00
2017-12-09T16:36:57.911Z,-1.00
2017-12-09T16:39:25.463Z,-1.10
2017-12-09T16:41:52.977Z,-1.10
2017-12-09T16:44:20.520Z,-1.10
2017-12-09T16:46:48.801Z,-1.10
2017-12-09T16:49:17.101Z,-1.10
2017-12-09T16:51:44.623Z,-1.10
2017-12-09T16:54:12.163Z,-1.10
2017-12-09T16:56:39.683Z,-1.10
2017-12-09T16:59:07.223Z,-1.10
2017-12-09T17:01:35.510Z,-1.10
2017-12-09T17:04:03.827Z,-1.00
2017-12-09T17:06:31.353Z,-1.10
2017-12-09T17:08:59.719Z,-1.00
2017-12-09T17:11:28.031Z,-1.10
2017-12-09T17:13:55.559Z,-1.10
2017-12-09T17:16:23.868Z,-1.10
2017-12-09T17:18:51.427Z,-1.10
2017-12-09T17:21:18.964Z,-1.00
2017-12-09T17:23:47.276Z,-1.00
2017-12-09T17:26:14.818Z,-1.10
2017-12-09T17:28:42.340Z,-1.00
2017-12-09T17:31:09.874Z,-1.00
2017-12-09T17:33:37.390Z,-1.10
2017-12-09T17:36:05.690Z,-1.20
2017-12-09T17:38:33.202Z,-1.20
2017-12-09T17:41:00.742Z,-1.20
2017-12-09T17:43:28.257Z,-1.20
2017-12-09T17:45:55.826Z,-1.20
2017-12-09T17:48:23.349Z,-1.20
2017-12-09T17:50:50.891Z,-1.20
2017-12-09T17:53:19.280Z,-1.10
2017-12-09T17:55:46.813Z,-1.20
2017-12-09T17:58:14.329Z,-1.10
2017-12-09T18:00:42.624Z,-1.20
2017-12-09T18:03:10.143Z,-1.20
2017-12-09T18:05:37.662Z,-1.20
2017-12-09T18:08:05.197Z,-1.20
2017-12-09T18:10:33.478Z,-1.10
2017-12-09T18:13:01.056Z,-1.20
2017-12-09T18:15:28.577Z,-1.10
2017-12-09T18:17:56.118Z,-1.10
2017-12-09T18:20:23.644Z,-1.10
2017-12-09T18:22:51.191Z,-1.10
2017-12-09T18:25:18.705Z,-1.10
2017-12-09T18:27:46.243Z,-1.10
2017-12-09T18:30:13.758Z,-1.10
2017-12-09T18:32:42.067Z,-1.10
2017-12-09T18:35:09.586Z,-1.10
2017-12-09T18:37:37.891Z,-1.10
2017-12-09T18:40:05.417Z,-1.10
2017-12-09T18:42:33.730Z,-1.10
2017-12-09T18:45:01.254Z,-1.10
2017-12-09T18:47:28.807Z,-1.00
2017-12-09T18:49:56.326Z,-1.00
2017-12-09T18:52:23.862Z,-1.00
2017-12-09T18:54:51.391Z,-1.00
2017-12-09T18:57:19.720Z,-1.10
2017-12-09T18:59:47.234Z,-1.10
2017-12-09T19:02:14.780Z,-1.10
2017-12-09T19:04:42.304Z,-1.10
2017-12-09T19:07:09.848Z,-1.00
2017-12-09T19:09:37.371Z,-1.00
2017-12-09T19:12:04.910Z,-1.00
2017-12-09T19:14:32.431Z,-1.00
2017-12-09T19:16:59.962Z,-1.00
2017-12-09T19:19:28.258Z,-1.00
2017-12-09T19:21:56.564Z,-1.00
2017-12-09T19:24:24.082Z,-1.00
2017-12-09T19:26:52.398Z,-1.00
2017-12-09T19:29:19.914Z,-1.10
2017-12-09T19:31:47.434Z,-1.10
2017-12-09T19:34:14.976Z,-1.00
2017-12-09T19:36:42.498Z,-1.00
2017-12-09T19:39:10.035Z,-1.10
2017-12-09T19:41:37.550Z,-1.00
2017-12-09T19:44:05.097Z,-1.00
2017-12-09T19:46:32.614Z,-1.00
2017-12-09T19:49:00.154Z,-1.00
2017-12-09T19:51:27.675Z,-1.10
2017-12-09T19:53:55.984Z,-1.10
2017-12-09T19:56:23.577Z,-1.10
2017-12-09T19:58:51.123Z,-1.20
2017-12-09T20:01:18.642Z,-1.10
2017-12-09T20:03:46.177Z,-1.20
2017-12-09T20:06:13.711Z,-1.30
2017-12-09T20:08:41.246Z,-1.40
2017-12-09T20:11:08.763Z,-1.40
2017-12-09T20:13:37.075Z,-1.40
2017-12-09T20:16:04.595Z,-1.40
2017-12-09T20:18:32.130Z,-1.50
2017-12-09T20:20:59.644Z,-1.50
2017-12-09T20:23:27.182Z,-1.40
2017-12-09T20:25:55.465Z,-1.30
2017-12-09T20:28:23.764Z,-1.30
2017-12-09T20:33:24.839Z,-1.40
2017-12-09T20:35:52.362Z,-1.40
2017-12-09T20:38:20.662Z,-1.40
2017-12-09T20:40:48.191Z,-1.40
2017-12-09T20:43:15.731Z,-1.40
2017-12-09T20:45:43.250Z,-1.40
2017-12-09T20:48:10.823Z,-1.40
2017-12-09T20:50:38.330Z,-1.40
2017-12-09T20:53:05.850Z,-1.40
2017-12-09T20:55:33.391Z,-1.40
2017-12-09T20:58:00.910Z,-1.30
2017-12-09T21:00:28.446Z,-1.30
2017-12-09T21:02:55.968Z,-1.30
2017-12-09T21:05:23.535Z,-1.30
2017-12-09T21:07:51.075Z,-1.40
2017-12-09T21:10:19.388Z,-1.40
2017-12-09T21:12:46.909Z,-1.40
2017-12-09T21:15:15.205Z,-1.40
2017-12-09T21:17:42.728Z,-1.40
2017-12-09T21:20:10.267Z,-1.40
2017-12-09T21:22:37.785Z,-1.40
2017-12-09T21:25:05.321Z,-1.40
2017-12-09T21:27:33.606Z,-1.30
2017-12-09T21:30:01.944Z,-1.30
2017-12-09T21:32:30.238Z,-1.30
2017-12-09T21:34:57.749Z,-1.40
2017-12-09T21:37:25.284Z,-1.30
2017-12-09T21:39:53.563Z,-1.20
2017-12-09T21:42:21.870Z,-1.20
2017-12-09T21:44:49.385Z,-1.20
2017-12-09T21:47:17.696Z,-1.30
2017-12-09T21:49:45.221Z,-1.30
2017-12-09T21:52:12.760Z,-1.30
2017-12-09T21:54:40.273Z,-1.30
2017-12-09T21:57:07.813Z,-1.30
2017-12-09T21:59:36.095Z,-1.30
2017-12-09T22:02:04.428Z,-1.30
2017-12-09T22:04:31.955Z,-1.30
2017-12-09T22:06:59.473Z,-1.30
2017-12-09T22:09:27.017Z,-1.30
2017-12-09T22:11:54.530Z,-1.30
2017-12-09T22:14:22.062Z,-1.30
2017-12-09T22:16:49.586Z,-1.30
2017-12-09T22:19:17.194Z,-1.30
2017-12-09T22:21:44.669Z,-1.30
2017-12-09T22:24:12.211Z,-1.30
2017-12-09T22:26:40.503Z,-1.30
2017-12-09T22:29:08.037Z,-1.30
2017-12-09T22:31:35.561Z,-1.30
2017-12-09T22:34:03.194Z,-1.20
2017-12-09T22:36:30.715Z,-1.20
2017-12-09T22:38:58.254Z,-1.20
2017-12-09T22:41:25.783Z,-1.20
2017-12-09T22:43:53.318Z,-1.20
2017-12-09T22:46:21.605Z,-1.30
2017-12-09T22:48:49.146Z,-1.30
2017-12-09T22:51:17.430Z,-1.30
2017-12-09T22:53:45.733Z,-1.20
2017-12-09T22:56:13.251Z,-1.20
2017-12-09T22:58:40.791Z,-1.20
2017-12-09T23:01:08.306Z,-1.20
2017-12-09T23:03:35.847Z,-1.20
2017-12-09T23:06:04.152Z,-1.10
2017-12-09T23:08:31.665Z,-1.10
2017-12-09T23:10:59.198Z,-1.10
2017-12-09T23:13:26.717Z,-1.10
2017-12-09T23:15:55.019Z,-1.00
2017-12-09T23:18:22.528Z,-1.00
2017-12-09T23:20:50.066Z,-0.90
2017-12-09T23:23:17.587Z,-1.00
2017-12-09T23:25:45.125Z,-1.00
2017-12-09T23:28:13.410Z,-1.00
2017-12-09T23:30:41.719Z,-1.00
2017-12-09T23:33:09.237Z,-1.00
2017-12-09T23:35:37.547Z,-1.00
2017-12-09T23:38:05.061Z,-1.00
2017-12-09T23:40:32.597Z,-0.90
2017-12-09T23:43:00.126Z,-0.90
2017-12-09T23:45:27.662Z,-0.90
2017-12-09T23:47:55.956Z,-1.00
2017-12-09T23:50:23.496Z,-1.00
2017-12-09T23:52:51.773Z,-1.10
2017-12-09T23:55:20.078Z,-1.10
2017-12-09T23:57:47.600Z,-1.10
